createdAt,value
2022-07-27T00:01:50.594Z,12.85
2022-07-27T00:04:18.594Z,12.59
2022-07-27T00:06:45.602Z,12.84
2022-07-27T00:09:12.703Z,12.61
2022-07-27T00:11:39.678Z,13.01
2022-07-27T00:14:06.342Z,13.45
2022-07-27T00:16:33.147Z,13.70
2022-07-27T00:19:00.169Z,13.83
2022-07-27T00:21:27.021Z,13.79
2022-07-27T00:23:54.680Z,13.17
2022-07-27T00:26:21.625Z,13.16
2022-07-27T00:28:49.051Z,13.27
2022-07-27T00:31:16.225Z,12.84
2022-07-27T00:33:43.064Z,12.99
2022-07-27T00:36:10.047Z,13.03
2022-07-27T00:38:36.721Z,13.39
2022-07-27T00:41:03.457Z,13.59
2022-07-27T00:43:30.375Z,13.52
2022-07-27T00:45:57.016Z,13.36
2022-07-27T00:48:23.654Z,13.31
2022-07-27T00:50:51.890Z,13.00
2022-07-27T00:53:18.501Z,13.41
2022-07-27T00:55:45.888Z,13.26
2022-07-27T00:58:12.605Z,13.34
2022-07-27T01:00:39.760Z,13.54
2022-07-27T01:03:08.641Z,13.69
2022-07-27T01:05:40.033Z,13.71
2022-07-27T01:08:12.566Z,13.62
2022-07-27T01:10:40.610Z,13.57
2022-07-27T01:13:12.500Z,13.52
2022-07-27T01:15:41.382Z,13.22
2022-07-27T01:18:27.159Z,13.45
2022-07-27T01:20:54.299Z,13.73
2022-07-27T01:23:21.576Z,13.68
2022-07-27T01:25:48.452Z,13.19
2022-07-27T01:28:15.123Z,13.49
2022-07-27T01:30:41.772Z,13.74
2022-07-27T01:33:10.068Z,13.18
2022-07-27T01:35:38.761Z,13.52
2022-07-27T01:38:07.069Z,13.47
2022-07-27T01:40:36.363Z,13.56
2022-07-27T01:43:05.181Z,13.52
2022-07-27T01:45:31.827Z,13.62
2022-07-27T01:47:58.570Z,12.95
2022-07-27T01:50:25.206Z,13.34
2022-07-27T01:52:51.809Z,13.25
2022-07-27T01:55:18.412Z,13.62
2022-07-27T01:57:44.985Z,13.46
2022-07-27T02:00:12.424Z,13.52
2022-07-27T02:02:40.056Z,13.51
2022-07-27T02:05:08.230Z,13.23
2022-07-27T02:07:34.859Z,13.09
2022-07-27T02:10:01.694Z,13.51
2022-07-27T02:12:36.673Z,13.43
2022-07-27T02:15:06.232Z,13.73
2022-07-27T02:17:33.314Z,13.16
2022-07-27T02:20:02.348Z,13.78
2022-07-27T02:22:29.103Z,13.47
2022-07-27T02:24:56.099Z,13.54
2022-07-27T02:27:22.930Z,13.32
2022-07-27T02:29:49.682Z,13.10
2022-07-27T02:32:16.425Z,13.71
2022-07-27T02:34:43.271Z,13.61
2022-07-27T02:37:10.064Z,13.75
2022-07-27T02:39:36.959Z,13.12
2022-07-27T02:42:04.082Z,13.64
2022-07-27T02:44:30.768Z,12.87
2022-07-27T02:46:57.458Z,13.50
2022-07-27T02:49:24.208Z,13.29
2022-07-27T02:51:52.786Z,13.67
2022-07-27T02:54:25.153Z,13.81
2022-07-27T02:56:53.132Z,13.52
2022-07-27T02:59:20.771Z,13.95
2022-07-27T03:01:48.073Z,13.65
2022-07-27T03:04:15.767Z,12.89
2022-07-27T03:06:43.090Z,12.76
2022-07-27T03:09:10.412Z,12.61
2022-07-27T03:11:37.927Z,12.50
2022-07-27T03:14:04.830Z,12.51
2022-07-27T03:16:31.565Z,12.57
2022-07-27T03:18:58.749Z,12.78
2022-07-27T03:21:25.483Z,12.84
2022-07-27T03:23:52.282Z,12.78
2022-07-27T03:26:19.285Z,12.77
2022-07-27T03:28:46.022Z,13.05
2022-07-27T03:31:12.752Z,13.01
2022-07-27T03:33:39.387Z,13.11
2022-07-27T03:36:07.249Z,12.72
2022-07-27T03:38:33.865Z,12.57
2022-07-27T03:41:00.525Z,12.28
2022-07-27T03:43:27.169Z,11.98
2022-07-27T03:45:53.821Z,11.79
2022-07-27T03:48:20.440Z,11.91
2022-07-27T03:50:47.045Z,11.95
2022-07-27T03:53:13.756Z,11.99
2022-07-27T03:55:40.466Z,12.06
2022-07-27T03:58:07.193Z,11.67
2022-07-27T04:00:33.820Z,11.99
2022-07-27T04:03:00.540Z,11.92
2022-07-27T04:05:29.360Z,11.90
2022-07-27T04:07:56.867Z,11.85
2022-07-27T04:10:24.987Z,11.94
2022-07-27T04:12:56.029Z,12.12
2022-07-27T04:15:23.291Z,12.14
2022-07-27T04:17:55.407Z,12.18
2022-07-27T04:20:24.551Z,12.09
2022-07-27T04:22:51.321Z,11.89
2022-07-27T04:25:18.178Z,11.88
2022-07-27T04:27:44.798Z,11.90
2022-07-27T04:30:12.033Z,12.06
2022-07-27T04:32:39.186Z,12.01
2022-07-27T04:35:07.360Z,11.96
2022-07-27T04:37:35.050Z,11.98
2022-07-27T04:40:02.041Z,12.00
2022-07-27T04:42:29.947Z,12.05
2022-07-27T04:44:57.021Z,12.06
2022-07-27T04:47:24.189Z,11.93
2022-07-27T04:49:50.964Z,11.91
2022-07-27T04:52:17.653Z,12.04
2022-07-27T04:54:45.855Z,12.06
2022-07-27T04:57:12.494Z,11.78
2022-07-27T04:59:39.085Z,12.11
2022-07-27T05:02:05.791Z,11.92
2022-07-27T05:04:32.538Z,11.95
2022-07-27T05:06:59.212Z,12.01
2022-07-27T05:09:25.910Z,12.16
2022-07-27T05:11:53.242Z,12.26
2022-07-27T05:14:21.340Z,12.18
2022-07-27T05:16:49.224Z,12.45
2022-07-27T05:19:16.128Z,12.46
2022-07-27T05:21:43.065Z,12.60
2022-07-27T05:24:10.178Z,12.80
2022-07-27T05:26:37.647Z,12.73
2022-07-27T05:29:04.758Z,12.93
2022-07-27T05:31:31.483Z,12.91
2022-07-27T05:33:58.646Z,13.12
2022-07-27T05:36:27.361Z,12.79
2022-07-27T05:38:54.118Z,13.01
2022-07-27T05:41:24.831Z,13.09
2022-07-27T05:43:52.077Z,13.09
2022-07-27T05:46:18.754Z,12.96
2022-07-27T05:48:45.564Z,13.00
2022-07-27T05:51:12.223Z,12.92
2022-07-27T05:53:39.402Z,12.81
2022-07-27T05:56:09.114Z,12.72
2022-07-27T05:58:35.778Z,13.02
2022-07-27T06:01:02.601Z,12.82
2022-07-27T06:03:29.496Z,12.96
2022-07-27T06:06:16.120Z,13.07
2022-07-27T06:08:42.898Z,12.95
2022-07-27T06:11:09.686Z,12.34
2022-07-27T06:13:37.113Z,12.54
2022-07-27T06:16:11.435Z,12.59
2022-07-27T06:18:38.488Z,12.49
2022-07-27T06:21:05.784Z,12.45
2022-07-27T06:23:32.659Z,12.67
2022-07-27T06:26:00.422Z,12.54
2022-07-27T06:28:27.060Z,12.77
2022-07-27T06:30:53.776Z,12.69
2022-07-27T06:33:30.852Z,12.81
2022-07-27T06:35:59.649Z,13.06
2022-07-27T06:38:28.861Z,13.00
2022-07-27T06:40:56.036Z,12.92
2022-07-27T06:43:28.431Z,12.65
2022-07-27T06:45:55.252Z,13.19
2022-07-27T06:48:22.559Z,13.18
2022-07-27T06:50:49.963Z,13.11
2022-07-27T06:53:20.881Z,13.43
2022-07-27T06:55:47.987Z,13.42
2022-07-27T06:58:17.162Z,13.28
2022-07-27T07:00:43.989Z,13.49
2022-07-27T07:03:11.421Z,13.51
2022-07-27T07:05:44.282Z,13.30
2022-07-27T07:08:12.093Z,13.48
2022-07-27T07:10:40.319Z,13.46
2022-07-27T07:13:08.087Z,13.49
2022-07-27T07:15:38.611Z,13.01
2022-07-27T07:18:06.698Z,12.82
2022-07-27T07:20:35.275Z,12.75
2022-07-27T07:23:02.045Z,13.15
2022-07-27T07:25:29.259Z,13.24
2022-07-27T07:27:56.614Z,13.18
2022-07-27T07:30:23.810Z,12.94
2022-07-27T07:32:50.544Z,12.69
2022-07-27T07:35:17.493Z,12.82
2022-07-27T07:37:50.605Z,12.46
2022-07-27T07:40:42.698Z,12.80
2022-07-27T07:43:08.355Z,12.97
2022-07-27T07:45:50.782Z,12.42
2022-07-27T07:48:19.648Z,12.99
2022-07-27T07:50:46.361Z,12.95
2022-07-27T07:53:19.916Z,13.08
2022-07-27T07:55:46.601Z,13.01
2022-07-27T07:58:15.715Z,12.78
2022-07-27T08:00:43.794Z,13.04
2022-07-27T08:03:10.657Z,13.16
2022-07-27T08:05:37.675Z,12.98
2022-07-27T08:08:04.591Z,12.79
2022-07-27T08:10:31.567Z,12.91
2022-07-27T08:12:58.430Z,12.48
2022-07-27T08:15:35.340Z,13.05
2022-07-27T08:18:06.950Z,13.25
2022-07-27T08:20:34.116Z,13.41
2022-07-27T08:23:01.443Z,13.17
2022-07-27T08:25:28.287Z,13.56
2022-07-27T08:27:55.500Z,13.11
2022-07-27T08:30:23.782Z,13.50
2022-07-27T08:32:59.776Z,13.34
2022-07-27T08:35:28.083Z,13.81
2022-07-27T08:37:55.864Z,13.26
2022-07-27T08:40:42.628Z,13.49
2022-07-27T08:43:18.967Z,13.34
2022-07-27T08:45:55.641Z,13.66
2022-07-27T08:48:25.593Z,13.86
2022-07-27T08:50:52.737Z,13.89
2022-07-27T08:53:19.727Z,13.78
2022-07-27T08:55:47.666Z,13.87
2022-07-27T08:58:16.066Z,14.12
2022-07-27T09:00:45.169Z,13.65
2022-07-27T09:03:18.896Z,13.30
2022-07-27T09:05:49.536Z,14.11
2022-07-27T09:08:21.339Z,14.14
2022-07-27T09:10:48.493Z,13.75
2022-07-27T09:13:34.567Z,14.41
2022-07-27T09:16:20.839Z,14.56
2022-07-27T09:19:01.436Z,14.51
2022-07-27T09:21:28.513Z,14.55
2022-07-27T09:24:23.551Z,14.69
2022-07-27T09:27:03.170Z,14.56
2022-07-27T09:29:34.728Z,14.84
2022-07-27T09:32:14.496Z,15.10
2022-07-27T09:34:41.387Z,14.84
2022-07-27T09:37:09.410Z,14.47
2022-07-27T09:39:35.998Z,14.75
2022-07-27T09:42:03.264Z,14.42
2022-07-27T09:44:43.136Z,15.24
2022-07-27T09:47:22.955Z,15.05
2022-07-27T09:49:49.712Z,15.64
2022-07-27T09:52:28.736Z,15.11
2022-07-27T09:55:03.043Z,15.75
2022-07-27T09:57:29.885Z,16.29
2022-07-27T10:00:13.934Z,15.44
2022-07-27T10:02:42.860Z,15.28
2022-07-27T10:05:10.502Z,15.45
2022-07-27T10:07:38.205Z,15.72
2022-07-27T10:10:05.320Z,15.95
2022-07-27T10:12:32.661Z,15.44
2022-07-27T10:14:59.471Z,15.43
2022-07-27T10:17:26.976Z,15.81
2022-07-27T10:19:56.873Z,15.81
2022-07-27T10:22:52.172Z,15.55
2022-07-27T10:25:20.054Z,16.56
2022-07-27T10:27:49.218Z,16.67
2022-07-27T10:30:23.919Z,16.37
2022-07-27T10:32:57.011Z,16.74
2022-07-27T10:35:34.270Z,16.61
2022-07-27T10:38:16.707Z,15.62
2022-07-27T10:40:44.183Z,16.67
2022-07-27T10:43:22.248Z,16.42
2022-07-27T10:46:01.634Z,16.79
2022-07-27T10:48:37.447Z,16.33
2022-07-27T10:51:08.511Z,16.73
2022-07-27T10:54:10.507Z,17.06
2022-07-27T10:56:47.358Z,16.86
2022-07-27T10:59:14.517Z,16.91
2022-07-27T11:01:58.055Z,16.48
2022-07-27T11:04:24.935Z,16.41
2022-07-27T11:07:23.986Z,16.60
2022-07-27T11:10:06.296Z,16.39
2022-07-27T11:12:34.786Z,16.41
2022-07-27T11:15:01.578Z,16.89
2022-07-27T11:17:52.847Z,16.99
2022-07-27T11:20:22.796Z,16.22
2022-07-27T11:25:36.073Z,16.67
2022-07-27T11:28:09.541Z,16.44
2022-07-27T11:30:36.514Z,16.51
2022-07-27T11:33:05.991Z,16.61
2022-07-27T11:35:32.739Z,16.27
2022-07-27T11:38:05.686Z,16.61
2022-07-27T11:43:36.744Z,16.92
2022-07-27T11:46:27.378Z,17.04
2022-07-27T11:49:09.624Z,17.04
2022-07-27T11:51:49.114Z,17.26
2022-07-27T11:54:26.556Z,17.13
2022-07-27T11:56:57.705Z,17.32
2022-07-27T11:59:28.754Z,17.34
2022-07-27T12:01:56.955Z,17.10
2022-07-27T12:04:25.324Z,17.11
2022-07-27T12:06:57.438Z,16.89
2022-07-27T12:09:25.407Z,17.18
2022-07-27T12:12:01.405Z,17.04
2022-07-27T12:14:58.038Z,17.04
2022-07-27T12:17:35.685Z,17.38
2022-07-27T12:20:10.495Z,17.46
2022-07-27T12:22:46.172Z,17.43
2022-07-27T12:25:18.995Z,17.36
2022-07-27T12:27:59.257Z,17.42
2022-07-27T12:30:44.918Z,17.45
2022-07-27T12:33:39.695Z,16.59
2022-07-27T12:36:09.475Z,17.12
2022-07-27T12:38:43.725Z,17.33
2022-07-27T12:41:11.536Z,17.30
2022-07-27T12:43:38.477Z,17.17
2022-07-27T12:46:13.457Z,16.96
2022-07-27T12:48:42.236Z,17.20
2022-07-27T12:51:10.203Z,17.35
2022-07-27T12:53:38.188Z,17.47
2022-07-27T12:56:08.115Z,17.63
2022-07-27T12:58:36.038Z,17.34
2022-07-27T13:01:03.158Z,17.61
2022-07-27T13:03:29.930Z,17.57
2022-07-27T13:05:56.817Z,17.76
2022-07-27T13:08:23.564Z,17.70
2022-07-27T13:10:52.259Z,17.34
2022-07-27T13:13:24.297Z,17.49
2022-07-27T13:15:50.995Z,17.27
2022-07-27T13:18:23.159Z,17.01
2022-07-27T13:20:51.508Z,16.76
2022-07-27T13:23:18.336Z,16.61
2022-07-27T13:25:45.192Z,16.05
2022-07-27T13:28:12.224Z,16.69
2022-07-27T13:30:39.020Z,16.81
2022-07-27T13:33:05.747Z,16.49
2022-07-27T13:35:32.459Z,16.48
2022-07-27T13:37:59.506Z,16.24
2022-07-27T13:40:26.293Z,16.15
2022-07-27T13:42:53.065Z,16.03
2022-07-27T13:45:19.778Z,15.58
2022-07-27T13:47:46.470Z,15.47
2022-07-27T13:50:18.260Z,15.27
2022-07-27T13:52:47.314Z,15.24
2022-07-27T13:55:15.507Z,14.74
2022-07-27T13:57:42.633Z,14.64
2022-07-27T14:00:10.249Z,14.41
2022-07-27T14:02:36.983Z,14.43
2022-07-27T14:05:06.014Z,14.63
2022-07-27T14:07:33.867Z,14.30
2022-07-27T14:10:19.308Z,14.65
2022-07-27T14:12:46.054Z,14.51
2022-07-27T14:15:13.147Z,14.70
2022-07-27T14:17:39.917Z,14.45
2022-07-27T14:20:07.255Z,14.11
2022-07-27T14:22:34.030Z,14.19
2022-07-27T14:25:00.679Z,14.41
2022-07-27T14:27:33.602Z,14.05
2022-07-27T14:30:06.984Z,14.06
2022-07-27T14:32:34.826Z,14.57
2022-07-27T14:35:01.740Z,14.75
2022-07-27T14:37:28.389Z,14.51
2022-07-27T14:39:55.030Z,14.71
2022-07-27T14:42:23.903Z,14.75
2022-07-27T14:44:50.529Z,14.50
2022-07-27T14:47:17.345Z,14.81
2022-07-27T14:49:44.144Z,14.81
2022-07-27T14:52:13.588Z,15.11
2022-07-27T14:54:45.427Z,15.12
2022-07-27T14:57:12.370Z,15.12
2022-07-27T14:59:40.084Z,15.05
2022-07-27T15:02:07.670Z,15.27
2022-07-27T15:04:34.559Z,15.34
2022-07-27T15:07:02.025Z,15.22
2022-07-27T15:09:30.280Z,15.40
2022-07-27T15:11:58.391Z,15.40
2022-07-27T15:14:25.346Z,15.51
2022-07-27T15:16:53.613Z,15.55
2022-07-27T15:19:22.898Z,15.91
2022-07-27T15:21:49.688Z,15.89
2022-07-27T15:24:16.725Z,15.93
2022-07-27T15:26:43.382Z,16.13
2022-07-27T15:29:14.770Z,16.01
2022-07-27T15:31:41.759Z,16.16
2022-07-27T15:34:08.489Z,16.18
2022-07-27T15:36:37.692Z,16.23
2022-07-27T15:39:09.894Z,16.29
2022-07-27T15:41:37.769Z,16.24
2022-07-27T15:44:06.003Z,16.31
2022-07-27T15:46:41.016Z,16.35
2022-07-27T15:49:09.065Z,16.31
2022-07-27T15:51:36.055Z,16.59
2022-07-27T15:54:02.693Z,16.77
2022-07-27T15:56:29.427Z,16.81
2022-07-27T15:58:56.162Z,16.90
2022-07-27T16:01:22.882Z,16.82
2022-07-27T16:04:01.893Z,16.95
2022-07-27T16:06:29.279Z,16.90
2022-07-27T16:08:56.365Z,16.59
2022-07-27T16:11:23.030Z,16.42
2022-07-27T16:13:49.644Z,16.68
2022-07-27T16:16:22.253Z,16.72
2022-07-27T16:18:51.121Z,16.70
2022-07-27T16:21:21.738Z,16.53
2022-07-27T16:23:49.099Z,16.84
2022-07-27T16:26:16.006Z,16.92
2022-07-27T16:28:45.781Z,16.93
2022-07-27T16:31:18.653Z,16.97
2022-07-27T16:33:46.307Z,16.81
2022-07-27T16:36:13.248Z,16.78
2022-07-27T16:38:49.539Z,16.83
2022-07-27T16:41:18.983Z,17.06
2022-07-27T16:43:45.885Z,16.86
2022-07-27T16:46:12.743Z,16.69
2022-07-27T16:48:42.621Z,16.65
2022-07-27T16:51:11.889Z,16.57
2022-07-27T16:53:45.343Z,16.79
2022-07-27T16:56:14.585Z,16.88
2022-07-27T16:58:41.332Z,16.93
2022-07-27T17:01:15.131Z,16.90
2022-07-27T17:03:53.617Z,17.15
2022-07-27T17:06:21.020Z,17.06
2022-07-27T17:08:48.505Z,17.31
2022-07-27T17:11:17.504Z,17.22
2022-07-27T17:13:49.048Z,17.32
2022-07-27T17:16:18.600Z,17.28
2022-07-27T17:18:47.531Z,17.13
2022-07-27T17:21:14.639Z,17.32
2022-07-27T17:23:43.962Z,17.42
2022-07-27T17:26:12.466Z,17.41
2022-07-27T17:28:40.531Z,17.30
2022-07-27T17:31:12.725Z,17.39
2022-07-27T17:33:40.452Z,17.44
2022-07-27T17:36:12.265Z,17.38
2022-07-27T17:38:45.766Z,17.30
2022-07-27T17:41:14.215Z,17.30
2022-07-27T17:43:43.632Z,17.52
2022-07-27T17:46:11.474Z,17.34
2022-07-27T17:48:41.962Z,17.75
2022-07-27T17:51:12.427Z,18.26
2022-07-27T17:53:41.812Z,18.15
2022-07-27T17:56:11.039Z,17.80
2022-07-27T17:58:42.622Z,17.64
2022-07-27T18:01:09.482Z,17.73
2022-07-27T18:03:38.635Z,18.07
2022-07-27T18:06:05.421Z,18.10
2022-07-27T18:08:32.097Z,18.02
2022-07-27T18:11:03.875Z,18.43
2022-07-27T18:13:39.075Z,18.82
2022-07-27T18:16:08.004Z,18.84
2022-07-27T18:18:36.404Z,18.87
2022-07-27T18:21:08.867Z,18.94
2022-07-27T18:23:37.711Z,19.07
2022-07-27T18:26:05.169Z,18.98
2022-07-27T18:28:39.003Z,18.59
2022-07-27T18:31:06.583Z,17.99
2022-07-27T18:33:36.274Z,18.51
2022-07-27T18:36:03.947Z,18.45
2022-07-27T18:38:30.628Z,18.12
2022-07-27T18:40:57.368Z,17.81
2022-07-27T18:43:24.066Z,17.61
2022-07-27T18:45:51.107Z,17.50
2022-07-27T18:48:17.848Z,17.36
2022-07-27T18:50:45.868Z,17.16
2022-07-27T18:53:14.877Z,17.16
2022-07-27T18:55:41.671Z,17.05
2022-07-27T18:58:08.590Z,16.94
2022-07-27T19:00:35.334Z,16.87
2022-07-27T19:03:02.191Z,16.83
2022-07-27T19:05:40.804Z,16.76
2022-07-27T19:08:28.777Z,16.73
2022-07-27T19:10:55.420Z,16.54
2022-07-27T19:13:22.238Z,16.65
2022-07-27T19:15:51.640Z,16.69
2022-07-27T19:18:20.927Z,16.71
2022-07-27T19:20:50.219Z,16.64
2022-07-27T19:23:17.116Z,16.59
2022-07-27T19:25:50.747Z,16.52
2022-07-27T19:28:20.417Z,16.45
2022-07-27T19:30:49.864Z,16.31
2022-07-27T19:33:18.276Z,16.31
2022-07-27T19:35:45.009Z,16.30
2022-07-27T19:38:14.210Z,16.24
2022-07-27T19:40:45.301Z,16.23
2022-07-27T19:43:13.535Z,16.05
2022-07-27T19:45:41.079Z,15.98
2022-07-27T19:48:08.344Z,16.01
2022-07-27T19:50:35.290Z,15.96
2022-07-27T19:53:05.055Z,15.91
2022-07-27T19:55:31.683Z,15.88
2022-07-27T19:57:58.629Z,15.76
2022-07-27T20:00:25.295Z,15.74
2022-07-27T20:02:55.444Z,15.70
2022-07-27T20:05:22.200Z,15.72
2022-07-27T20:07:48.846Z,15.65
2022-07-27T20:10:15.603Z,15.55
2022-07-27T20:12:42.283Z,15.56
2022-07-27T20:15:09.267Z,15.57
2022-07-27T20:17:40.518Z,15.57
2022-07-27T20:20:08.610Z,15.49
2022-07-27T20:22:35.398Z,15.49
2022-07-27T20:25:02.671Z,15.51
2022-07-27T20:27:29.475Z,15.47
2022-07-27T20:29:56.154Z,15.49
2022-07-27T20:32:22.786Z,15.49
2022-07-27T20:34:49.521Z,15.44
2022-07-27T20:37:16.223Z,15.46
2022-07-27T20:39:42.862Z,15.43
2022-07-27T20:42:10.845Z,15.36
2022-07-27T20:44:37.623Z,15.25
2022-07-27T20:47:07.971Z,15.20
2022-07-27T20:49:34.716Z,15.19
2022-07-27T20:52:01.741Z,15.19
2022-07-27T20:54:29.088Z,15.24
2022-07-27T20:56:57.086Z,15.24
2022-07-27T20:59:24.177Z,15.22
2022-07-27T21:01:51.100Z,15.16
2022-07-27T21:04:27.035Z,15.14
2022-07-27T21:06:54.244Z,15.16
2022-07-27T21:09:22.049Z,15.01
2022-07-27T21:11:49.184Z,15.04
2022-07-27T21:14:15.969Z,15.01
2022-07-27T21:16:42.640Z,15.01
2022-07-27T21:19:10.262Z,14.94
2022-07-27T21:21:37.368Z,15.00
2022-07-27T21:24:18.542Z,14.93
2022-07-27T21:26:50.652Z,14.89
2022-07-27T21:29:18.125Z,14.70
2022-07-27T21:31:49.457Z,14.69
2022-07-27T21:34:22.995Z,14.61
2022-07-27T21:36:49.708Z,14.75
2022-07-27T21:39:17.972Z,14.77
2022-07-27T21:41:45.204Z,14.73
2022-07-27T21:44:12.303Z,14.72
2022-07-27T21:46:39.126Z,14.70
2022-07-27T21:49:05.837Z,14.73
2022-07-27T21:51:32.580Z,14.70
2022-07-27T21:53:59.365Z,14.71
2022-07-27T21:56:26.628Z,14.57
2022-07-27T21:58:53.355Z,14.63
2022-07-27T22:01:20.001Z,14.47
2022-07-27T22:03:46.886Z,14.64
2022-07-27T22:06:13.974Z,14.55
2022-07-27T22:08:40.589Z,14.57
2022-07-27T22:11:07.357Z,14.68
2022-07-27T22:13:34.281Z,14.68
2022-07-27T22:16:01.226Z,14.63
2022-07-27T22:18:29.891Z,14.67
2022-07-27T22:20:57.040Z,14.59
2022-07-27T22:23:24.011Z,14.47
2022-07-27T22:25:51.457Z,14.56
2022-07-27T22:28:18.085Z,14.61
2022-07-27T22:30:59.968Z,14.64
2022-07-27T22:33:31.427Z,14.60
2022-07-27T22:36:02.211Z,14.65
2022-07-27T22:38:31.308Z,14.63
2022-07-27T22:41:00.529Z,14.55
2022-07-27T22:43:29.241Z,14.55
2022-07-27T22:46:05.182Z,14.54
2022-07-27T22:48:33.848Z,14.57
2022-07-27T22:51:00.544Z,14.54
2022-07-27T22:53:27.155Z,14.45
2022-07-27T22:55:53.955Z,14.49
2022-07-27T22:58:20.762Z,14.45
2022-07-27T23:00:47.490Z,14.41
2022-07-27T23:03:14.413Z,14.41
2022-07-27T23:05:41.080Z,14.36
2022-07-27T23:08:07.811Z,14.36
2022-07-27T23:10:46.368Z,14.31
2022-07-27T23:13:17.968Z,14.26
2022-07-27T23:15:45.794Z,14.26
2022-07-27T23:18:13.137Z,14.23
2022-07-27T23:20:41.214Z,14.26
2022-07-27T23:23:15.432Z,14.26
2022-07-27T23:25:44.991Z,14.15
2022-07-27T23:28:11.831Z,14.18
2022-07-27T23:30:38.810Z,14.22
2022-07-27T23:33:05.449Z,14.21
2022-07-27T23:35:32.381Z,14.16
2022-07-27T23:38:00.247Z,14.16
2022-07-27T23:40:27.332Z,14.18
2022-07-27T23:42:54.103Z,14.14
2022-07-27T23:45:20.713Z,14.11
2022-07-27T23:47:47.355Z,14.15
2022-07-27T23:50:14.141Z,14.12
2022-07-27T23:52:40.915Z,14.10
2022-07-27T23:55:10.747Z,14.07
2022-07-27T23:57:37.457Z,14.06
